BLACK BUTTE (BLB)

Elevation: 426' · STONY CR basin · Operator: US Army Corps of Engineers

Provisional data, subject to change.
Query executed Thursday at 23:33:38   clock

Select a sensor type for a plot of data.
Note: Reservoir Flows are daily averages.

Earlier

Date RES ELE    STORAGE    RES CHG    TOC STO    ABV TOC    OUTFLOW    INFLOW    PPT INC    TEMP MN    TEMP MX    EVP PAN   
 FEET   AF   AF   AF   AF   CFS   CFS   INCHES   DEG F   DEG F   INCHES  
12/30/2014 444.93 41595 -440 30429 11166 403 191 0.00 4 10 0.11
12/31/2014 444.76 41224 -371 -- -- -- -- -- -- -- --
01/01/2015 444.58 40833 -391 29800 11033 397 205 0.00 0 12 0.06
01/02/2015 444.37 40381 -452 31521 10581 401 176 0.00 1 12 0.04
01/03/2015 444.16 39932 -449 31510 10132 399 175 0.00 0 13 0.04
01/04/2015 443.94 39465 -467 31510 7955 399 167 0.00 2 14 0.04
01/05/2015 443.76 39086 -379 29800 9286 327 140 0.00 3 19 0.05
01/06/2015 443.65 38856 -230 29800 9056 247 135 0.01 4 20 0.06
01/07/2015 443.55 38648 -208 29800 8848 247 147 0.00 7 21 0.07
01/08/2015 443.45 38440 -208 29800 8640 226 125 0.00 3 18 0.05
01/09/2015 443.43 38398 -42 29800 8598 135 117 0.00 7 17 0.05
01/10/2015 443.48 38502 104 29800 8702 65 120 0.00 6 14 0.03
01/11/2015 443.54 38627 125 29800 8827 48 114 0.00 6 18 0.05
01/12/2015 443.60 38752 125 29800 8952 29 97 0.00 7 19 0.07
01/13/2015 443.66 38877 125 29800 9077 29 99 0.00 12 19 0.11
01/14/2015 443.74 39044 167 29800 9244 28 116 0.00 4 16 0.05
01/15/2015 443.79 39149 105 29800 9349 28 84 0.00 5 13 0.04
01/16/2015 443.86 39296 147 29800 9496 28 104 0.00 8 10 0.02
01/17/2015 443.93 39444 148 29800 9644 28 106 0.00 9 16 0.05
01/18/2015 444.01 39613 169 29800 9813 28 115 0.00 9 12 0.03
01/19/2015 444.09 39783 170 29800 9983 28 119 0.01 5 18 0.08
01/20/2015 444.18 39974 191 29800 10174 27 127 0.00 2 18 0.05
01/21/2015 444.24 40102 128 29800 10302 28 99 0.03 6 20 0.09
01/22/2015 444.31 40252 150 29800 10452 28 107 0.00 5 18 0.06
01/23/2015 444.37 40381 129 29800 10581 28 101 0.02 9 23 0.11
01/24/2015 444.42 40488 107 29800 10688 27 91 0.01 13 25 0.13
01/25/2015 444.48 40617 129 29800 10817 28 97 0.00 5 19 0.06
01/26/2015 444.54 40747 130 29800 10947 27 98 0.00 6 21 0.07
01/27/2015 444.60 40876 129 29800 11076 27 95 0.00 8 14 0.04
01/28/2015 444.64 40963 87 29800 11163 27 78 0.00 9 22 0.09
01/29/2015 -- -- -- -- -- -- -- -- -- -- --

Later | Latest

Warning! This data is preliminary and subject to revision.

Show BLB Map | Plot BLB Data | 1 Month BLB Data | Real-Time BLB Data | BLB Info